Time;durP1;ratioP1;P1;durP2;ratioP2;P2;SDS_P1;SDS_P2;PMS_P1;PMS_P2;Temp;Humidity;BMP_temperature;BMP_pressure;BME280_temperature;BME280_humidity;BME280_pressure;Samples;Min_cycle;Max_cycle;Signal;HPM_P1;HPM_P2
2021/08/16 00:01:26;;;;;;;9.10;3.43;;;;;;;19.19;78.18;99451.72;5048109;28;20611;-79
2021/08/16 00:03:53;;;;;;;3.63;3.30;;;;;;;18.83;78.05;99461.25;5039190;28;20229;-80
2021/08/16 00:06:19;;;;;;;5.33;3.67;;;;;;;18.84;79.76;99388.91;5051569;28;20197;-80
2021/08/16 00:08:46;;;;;;;3.90;3.40;;;;;;;19.00;79.94;99378.09;5056242;28;20283;-81
2021/08/16 00:11:12;;;;;;;3.73;3.43;;;;;;;19.06;79.65;99374.16;5055989;28;20270;-80
2021/08/16 00:13:39;;;;;;;3.37;2.93;;;;;;;19.16;79.14;99385.78;5043891;28;20226;-80
2021/08/16 00:16:07;;;;;;;6.57;3.37;;;;;;;19.21;79.04;99388.94;5043165;28;20211;-80
2021/08/16 00:18:34;;;;;;;3.63;3.23;;;;;;;19.27;78.63;99397.41;5056241;28;20676;-80
2021/08/16 00:21:01;;;;;;;3.67;3.23;;;;;;;19.21;78.83;99401.34;5056141;28;20710;-79
2021/08/16 00:23:27;;;;;;;4.07;3.30;;;;;;;19.20;79.06;99387.25;5055819;28;20232;-79
2021/08/16 00:25:54;;;;;;;5.83;3.50;;;;;;;19.20;78.72;99397.00;5056404;28;20213;-80
2021/08/16 00:28:20;;;;;;;3.47;3.17;;;;;;;19.18;78.71;99397.09;5045998;28;20620;-79
2021/08/16 00:30:47;;;;;;;4.47;3.03;;;;;;;19.16;78.75;99396.34;5050279;28;20201;-79
2021/08/16 00:33:15;;;;;;;4.13;2.93;;;;;;;19.14;78.37;99392.97;5035248;28;20234;-80
2021/08/16 00:35:41;;;;;;;6.83;3.47;;;;;;;19.07;78.22;99398.81;5048663;28;20198;-79
2021/08/16 00:38:08;;;;;;;3.30;3.00;;;;;;;18.99;78.17;99405.50;5056092;28;20220;-79
2021/08/16 00:40:35;;;;;;;9.13;3.10;;;;;;;19.00;78.12;99412.47;5055657;28;20225;-80
2021/08/16 00:43:01;;;;;;;3.70;2.90;;;;;;;18.95;78.12;99401.38;5054107;28;20222;-79
2021/08/16 00:45:29;;;;;;;3.63;3.27;;;;;;;18.97;78.09;99396.84;5051816;28;20231;-79
2021/08/16 00:47:55;;;;;;;3.67;3.30;;;;;;;18.94;78.18;99396.19;5033298;28;20209;-79
2021/08/16 00:50:23;;;;;;;4.70;3.23;;;;;;;18.92;78.02;99411.34;5050463;28;20201;-78
2021/08/16 00:52:50;;;;;;;5.63;3.23;;;;;;;18.91;77.79;99414.91;5046546;28;20226;-79
2021/08/16 00:55:18;;;;;;;9.53;2.87;;;;;;;18.88;78.21;99409.84;5033326;28;20211;-79
2021/08/16 00:57:44;;;;;;;4.53;3.27;;;;;;;18.89;78.25;99409.75;5033648;28;20257;-79
2021/08/16 01:00:13;;;;;;;4.27;3.20;;;;;;;18.87;78.54;99395.81;5033206;28;20229;-79
2021/08/16 01:02:41;;;;;;;3.33;3.00;;;;;;;18.85;78.18;99397.72;5039731;28;20206;-79
2021/08/16 01:05:11;;;;;;;3.67;3.37;;;;;;;18.86;78.53;99407.31;5049720;28;20216;-79
2021/08/16 01:07:40;;;;;;;3.27;2.97;;;;;;;18.78;78.17;99414.91;5050232;28;20205;-79
2021/08/16 01:10:09;;;;;;;3.83;3.43;;;;;;;18.80;77.16;99453.53;5052459;28;20200;-79
2021/08/16 01:12:37;;;;;;;3.90;3.00;;;;;;;18.78;78.42;99418.38;5044793;28;20232;-79
2021/08/16 01:15:08;;;;;;;5.43;3.60;;;;;;;18.82;77.98;99416.41;5032986;28;20557;-80
2021/08/16 01:17:36;;;;;;;3.43;3.13;;;;;;;18.76;78.42;99422.94;5032701;28;20687;-79
2021/08/16 01:20:04;;;;;;;4.63;3.50;;;;;;;18.74;78.16;99432.78;5036708;28;20691;-79
2021/08/16 01:22:31;;;;;;;4.03;3.17;;;;;;;18.45;76.62;99503.47;5048169;28;20201;-79
2021/08/16 01:24:59;;;;;;;4.60;3.53;;;;;;;18.55;76.84;99495.78;5056786;28;20212;-79
2021/08/16 01:27:26;;;;;;;6.67;3.50;;;;;;;18.42;76.58;99506.34;5044743;28;20206;-79
2021/08/16 01:29:53;;;;;;;5.37;3.07;;;;;;;18.51;77.03;99500.41;5036558;28;20214;-79
2021/08/16 01:32:20;;;;;;;5.73;3.53;;;;;;;18.61;76.68;99513.84;5036564;28;20618;-79
2021/08/16 01:34:46;;;;;;;3.70;3.23;;;;;;;18.01;77.94;99517.81;5044629;28;20221;-79
2021/08/16 01:37:12;;;;;;;4.27;3.87;;;;;;;17.88;79.39;99435.03;5050126;28;20729;-79
2021/08/16 01:39:39;;;;;;;5.27;3.83;;;;;;;18.01;78.96;99454.44;5056592;28;20208;-79
2021/08/16 01:42:06;;;;;;;4.40;3.97;;;;;;;17.73;80.16;99440.34;5051856;28;20209;-78
2021/08/16 01:44:33;;;;;;;4.37;3.73;;;;;;;17.46;81.81;99374.38;5056224;28;20225;-78
2021/08/16 01:47:00;;;;;;;5.87;4.13;;;;;;;17.66;81.80;99375.72;5055859;28;20204;-79
2021/08/16 01:49:26;;;;;;;5.10;3.80;;;;;;;17.77;81.91;99367.94;5043465;28;20212;-78
2021/08/16 01:51:53;;;;;;;3.47;3.17;;;;;;;17.90;80.96;99393.53;5035828;28;20209;-78
2021/08/16 01:54:20;;;;;;;3.90;3.50;;;;;;;18.00;80.78;99405.22;5036328;28;20255;-79
2021/08/16 01:56:46;;;;;;;4.97;3.77;;;;;;;18.10;80.46;99431.88;5036434;28;20205;-79
2021/08/16 01:59:13;;;;;;;6.37;3.90;;;;;;;18.18;80.60;99437.47;5036489;28;20552;-79
2021/08/16 02:01:41;;;;;;;5.57;3.57;;;;;;;18.05;80.59;99443.56;5036592;28;20233;-78
2021/08/16 02:04:07;;;;;;;5.73;3.80;;;;;;;17.96;80.76;99430.97;5040886;28;20224;-79
2021/08/16 02:06:34;;;;;;;5.83;3.83;;;;;;;17.93;80.93;99420.59;5049430;28;20209;-80
2021/08/16 02:09:00;;;;;;;7.20;3.87;;;;;;;17.76;81.53;99410.25;5056177;28;20266;-79
2021/08/16 02:11:27;;;;;;;4.87;4.37;;;;;;;17.88;81.68;99403.38;5055997;28;20234;-80
2021/08/16 02:13:53;;;;;;;4.80;4.33;;;;;;;17.68;82.43;99381.75;5053096;28;20232;-80
2021/08/16 02:16:20;;;;;;;4.37;3.97;;;;;;;17.76;82.21;99373.31;5056407;28;20204;-79
2021/08/16 02:18:47;;;;;;;6.27;4.43;;;;;;;17.80;82.35;99370.38;5056108;28;20265;-79
2021/08/16 02:21:14;;;;;;;4.43;4.03;;;;;;;17.96;82.23;99379.97;5055832;28;20266;-79
2021/08/16 02:23:40;;;;;;;5.17;3.97;;;;;;;18.06;81.71;99400.38;5041780;28;20225;-79
2021/08/16 02:26:07;;;;;;;5.10;4.20;;;;;;;17.86;82.28;99385.00;5036003;28;20674;-78
2021/08/16 02:28:34;;;;;;;5.60;4.30;;;;;;;17.94;82.04;99392.41;5036149;28;20209;-79
2021/08/16 02:31:00;;;;;;;4.30;3.83;;;;;;;18.04;80.99;99420.75;5036916;28;20637;-79
2021/08/16 02:33:27;;;;;;;5.77;4.30;;;;;;;17.91;81.49;99421.66;5033930;28;20268;-78
2021/08/16 02:35:55;;;;;;;5.20;4.10;;;;;;;17.89;81.30;99419.13;5054827;28;20201;-79
2021/08/16 02:38:21;;;;;;;4.40;4.00;;;;;;;17.93;81.61;99410.03;5055511;28;20204;-79
2021/08/16 02:40:48;;;;;;;4.63;4.23;;;;;;;17.95;81.44;99417.88;5054625;28;20309;-79
2021/08/16 02:43:14;;;;;;;4.40;4.00;;;;;;;17.84;81.57;99422.06;5041830;28;20719;-79
2021/08/16 02:45:40;;;;;;;4.70;3.73;;;;;;;17.79;82.01;99397.72;5037962;28;20208;-79
2021/08/16 02:48:07;;;;;;;5.63;4.57;;;;;;;17.82;82.01;99405.44;5055349;28;20208;-79
2021/08/16 02:50:34;;;;;;;4.97;4.43;;;;;;;17.80;81.63;99417.91;5050303;28;20204;-79
2021/08/16 02:53:01;;;;;;;5.13;4.00;;;;;;;17.71;82.36;99391.25;5054460;28;20572;-80
2021/08/16 02:55:28;;;;;;;6.03;4.63;;;;;;;17.50;83.07;99369.75;5055245;28;20231;-79
2021/08/16 02:57:54;;;;;;;5.63;4.40;;;;;;;17.42;83.65;99355.28;5055732;28;20207;-79
2021/08/16 03:00:21;;;;;;;5.33;4.40;;;;;;;17.52;83.04;99381.91;5039516;28;20232;-80
2021/08/16 03:02:47;;;;;;;5.50;4.97;;;;;;;17.48;83.36;99369.81;5036703;28;20215;-80
2021/08/16 03:05:14;;;;;;;4.23;3.90;;;;;;;17.61;82.69;99386.56;5046305;28;20205;-80
2021/08/16 03:07:41;;;;;;;6.17;4.67;;;;;;;17.50;83.35;99378.50;5050310;28;20201;-79
2021/08/16 03:10:10;;;;;;;6.57;4.73;;;;;;;17.44;82.54;99398.22;5036740;28;20205;-80
2021/08/16 03:12:37;;;;;;;4.50;3.30;;;;;;;17.49;81.71;99428.75;5037099;28;20202;-78
2021/08/16 03:15:04;;;;;;;4.90;4.37;;;;;;;17.47;80.52;99466.63;5052621;28;20205;-79
2021/08/16 03:17:30;;;;;;;4.13;3.73;;;;;;;17.49;80.42;99474.44;5056802;28;20213;-80
2021/08/16 03:19:57;;;;;;;3.80;3.50;;;;;;;17.33;81.02;99474.56;5039152;28;20860;-79
2021/08/16 03:22:23;;;;;;;3.87;3.43;;;;;;;17.22;81.17;99459.41;5035768;28;20222;-78
2021/08/16 03:24:50;;;;;;;5.13;3.57;;;;;;;17.11;81.42;99442.56;5037022;28;20228;-80
2021/08/16 03:27:18;;;;;;;3.93;3.57;;;;;;;17.13;81.27;99454.69;5037244;28;20239;-79
2021/08/16 03:29:44;;;;;;;4.30;3.87;;;;;;;17.17;81.05;99458.84;5050533;28;20673;-79
2021/08/16 03:32:12;;;;;;;3.30;3.00;;;;;;;17.32;80.99;99456.19;5055694;28;20615;-80
2021/08/16 03:34:38;;;;;;;4.27;3.90;;;;;;;17.40;80.31;99473.25;5056371;28;20233;-80
2021/08/16 03:37:05;;;;;;;6.30;3.70;;;;;;;17.44;79.45;99510.81;5056109;28;20547;-80
2021/08/16 03:39:31;;;;;;;3.73;3.43;;;;;;;17.33;79.73;99506.22;5038142;28;20194;-80
2021/08/16 03:41:58;;;;;;;4.80;3.70;;;;;;;17.35;79.65;99495.56;5051029;28;20235;-80
2021/08/16 03:44:26;;;;;;;5.27;4.30;;;;;;;17.39;79.54;99497.91;5042415;28;20633;-80
2021/08/16 03:46:52;;;;;;;4.70;4.30;;;;;;;17.27;79.46;99496.88;5036501;28;20221;-80
2021/08/16 03:49:19;;;;;;;4.17;3.87;;;;;;;17.42;79.34;99508.28;5036136;28;20563;-80
2021/08/16 03:51:45;;;;;;;4.67;4.23;;;;;;;17.30;79.31;99506.38;5035058;28;20690;-79
2021/08/16 03:54:11;;;;;;;6.07;4.43;;;;;;;17.37;78.76;99520.91;5035042;28;20252;-79
2021/08/16 03:56:38;;;;;;;4.70;4.23;;;;;;;17.45;78.43;99531.81;5042084;28;20205;-79
2021/08/16 03:59:04;;;;;;;5.00;4.60;;;;;;;17.50;77.68;99560.56;5042838;28;20205;-79
2021/08/16 04:01:32;;;;;;;6.20;5.70;;;;;;;17.35;77.24;99591.38;5034832;28;20240;-79
2021/08/16 04:04:01;;;;;;;6.23;5.63;;;;;;;17.36;77.43;99573.75;5037157;28;20221;-79
2021/08/16 04:06:27;;;;;;;6.93;6.03;;;;;;;17.36;77.21;99571.97;5050277;28;20204;-79
2021/08/16 04:08:54;;;;;;;6.30;5.80;;;;;;;17.14;77.10;99582.13;5037939;28;20210;-79
2021/08/16 04:11:20;;;;;;;6.53;6.03;;;;;;;17.06;78.03;99535.09;5035457;28;20236;-80
2021/08/16 04:13:46;;;;;;;7.40;6.90;;;;;;;16.93;77.78;99556.09;5037416;28;20228;-80
2021/08/16 04:16:13;;;;;;;7.23;6.63;;;;;;;16.93;78.19;99537.66;5037027;28;20211;-80
2021/08/16 04:18:41;;;;;;;6.90;6.30;;;;;;;17.02;78.05;99537.06;5035955;28;20268;-80
2021/08/16 04:21:07;;;;;;;7.30;6.70;;;;;;;16.93;77.76;99552.63;5034201;28;20231;-79
2021/08/16 04:23:33;;;;;;;7.33;6.63;;;;;;;16.82;78.75;99532.16;5045014;28;20225;-79
2021/08/16 04:26:00;;;;;;;7.93;7.23;;;;;;;16.75;78.61;99530.78;5053804;28;20205;-79
2021/08/16 04:28:26;;;;;;;6.90;6.40;;;;;;;16.75;78.93;99521.09;5046181;28;20203;-79
2021/08/16 04:30:53;;;;;;;6.80;6.30;;;;;;;16.84;78.94;99514.47;5053674;28;20199;-79
2021/08/16 04:33:24;;;;;;;7.67;7.07;;;;;;;16.93;78.27;99534.16;5053240;28;20232;-79
2021/08/16 04:35:52;;;;;;;8.13;7.07;;;;;;;16.92;78.37;99535.09;5053512;28;20208;-79
2021/08/16 04:38:19;;;;;;;7.20;6.70;;;;;;;16.91;78.47;99528.97;5053860;28;20206;-79
2021/08/16 04:40:46;;;;;;;7.40;6.70;;;;;;;16.68;79.39;99503.97;5053385;28;20207;-79
2021/08/16 04:43:13;;;;;;;7.27;6.67;;;;;;;16.79;79.71;99490.16;5044491;28;20560;-79
2021/08/16 04:45:39;;;;;;;7.30;6.70;;;;;;;16.56;80.33;99468.63;5033602;28;20244;-79
2021/08/16 04:48:06;;;;;;;8.37;7.77;;;;;;;16.54;80.63;99462.63;5033773;28;20266;-79
2021/08/16 04:50:32;;;;;;;8.20;7.53;;;;;;;16.58;80.30;99463.28;5033400;28;20602;-78
2021/08/16 04:53:00;;;;;;;7.30;6.67;;;;;;;16.70;80.25;99469.63;5033466;28;20220;-80
2021/08/16 04:55:26;;;;;;;7.87;7.33;;;;;;;16.48;81.09;99458.56;5033463;28;20205;-78
2021/08/16 04:57:53;;;;;;;8.03;7.43;;;;;;;16.58;80.95;99452.75;5032632;28;20604;-78
2021/08/16 05:00:24;;;;;;;8.03;7.53;;;;;;;16.67;81.28;99442.50;5038003;28;20606;-79
2021/08/16 05:02:51;;;;;;;8.93;7.60;;;;;;;16.79;80.82;99455.91;5043456;28;20256;-78
2021/08/16 05:05:18;;;;;;;7.67;7.07;;;;;;;16.95;80.30;99474.28;5043303;28;20207;-78
2021/08/16 05:07:48;;;;;;;8.30;7.60;;;;;;;16.80;79.98;99495.31;5042293;28;20203;-79
2021/08/16 05:10:17;;;;;;;8.23;7.50;;;;;;;16.72;80.65;99480.91;5039378;28;20588;-78
2021/08/16 05:12:44;;;;;;;7.47;6.87;;;;;;;16.86;80.31;99487.06;5043146;28;20269;-78
2021/08/16 05:15:11;;;;;;;8.20;7.60;;;;;;;16.75;80.88;99473.69;5042265;28;20199;-79
2021/08/16 05:17:38;;;;;;;8.03;7.33;;;;;;;16.78;81.04;99446.28;5041809;28;20207;-79
2021/08/16 05:20:07;;;;;;;8.60;7.73;;;;;;;16.76;80.61;99471.88;5042251;28;20693;-79
2021/08/16 05:22:34;;;;;;;8.90;8.10;;;;;;;16.78;81.05;99456.81;5040416;28;20574;-79
2021/08/16 05:25:01;;;;;;;8.80;8.20;;;;;;;16.85;80.42;99487.19;5041389;28;20263;-78
2021/08/16 05:27:29;;;;;;;9.00;8.40;;;;;;;16.96;80.14;99487.34;5042426;28;20198;-79
2021/08/16 05:29:55;;;;;;;9.07;7.83;;;;;;;17.06;79.82;99495.56;5043516;28;20202;-79
2021/08/16 05:32:22;;;;;;;10.33;9.40;;;;;;;16.95;80.00;99501.50;5041708;28;20243;-78
2021/08/16 05:34:48;;;;;;;9.60;8.70;;;;;;;17.01;80.07;99492.38;5046382;28;20719;-79
2021/08/16 05:37:15;;;;;;;9.73;9.00;;;;;;;17.09;79.72;99503.28;5043636;28;20199;-80
2021/08/16 05:39:41;;;;;;;9.93;9.03;;;;;;;17.14;79.11;99526.75;5041878;28;20201;-79
2021/08/16 05:42:07;;;;;;;11.70;10.70;;;;;;;17.14;78.96;99543.41;5042431;28;20690;-79
2021/08/16 05:44:35;;;;;;;10.50;9.57;;;;;;;17.07;77.70;99586.91;5040435;28;20276;-80
2021/08/16 05:47:02;;;;;;;10.57;9.77;;;;;;;17.02;78.16;99559.97;5041854;28;20246;-78
2021/08/16 05:49:30;;;;;;;9.33;8.43;;;;;;;17.06;78.08;99566.75;5041658;28;20199;-79
2021/08/16 05:51:57;;;;;;;9.70;8.40;;;;;;;17.19;78.17;99561.59;5042618;28;20196;-79
2021/08/16 05:54:23;;;;;;;8.83;8.00;;;;;;;17.15;77.87;99579.41;5041021;28;20416;-78
2021/08/16 05:56:50;;;;;;;8.40;7.70;;;;;;;17.21;78.17;99557.09;5040287;28;20199;-79
2021/08/16 05:59:16;;;;;;;8.80;7.93;;;;;;;17.23;78.27;99547.28;5041736;28;20691;-79
2021/08/16 06:01:44;;;;;;;8.33;7.60;;;;;;;17.23;77.96;99563.13;5040474;28;20283;-79
2021/08/16 06:04:10;;;;;;;7.67;6.97;;;;;;;17.32;77.77;99567.81;5041223;28;20273;-79
2021/08/16 06:06:37;;;;;;;8.17;7.43;;;;;;;17.22;77.60;99575.47;5046187;28;20261;-79
2021/08/16 06:09:05;;;;;;;8.07;6.97;;;;;;;17.33;77.32;99581.88;5054521;28;20624;-79
2021/08/16 06:11:32;;;;;;;7.50;6.80;;;;;;;17.36;76.37;99614.19;5045585;28;20254;-78
2021/08/16 06:13:58;;;;;;;8.07;7.20;;;;;;;17.34;76.00;99608.13;5035778;28;20228;-79
2021/08/16 06:16:25;;;;;;;8.00;7.40;;;;;;;17.18;76.19;99623.19;5036354;28;20265;-78
2021/08/16 06:18:53;;;;;;;7.80;7.00;;;;;;;17.32;76.19;99611.81;5049177;28;20204;-79
2021/08/16 06:21:20;;;;;;;9.50;6.80;;;;;;;17.39;75.78;99621.06;5056751;28;20262;-78
2021/08/16 06:23:47;;;;;;;7.10;6.50;;;;;;;17.56;75.35;99633.22;5055509;28;20242;-83
2021/08/16 06:26:14;;;;;;;9.17;8.37;;;;;;;17.61;74.38;99666.31;5046751;28;20197;-80
2021/08/16 06:28:41;;;;;;;10.67;8.03;;;;;;;17.76;74.23;99661.91;5036260;28;20259;-77
2021/08/16 06:31:08;;;;;;;9.50;8.10;;;;;;;17.65;73.81;99667.81;5035934;28;20217;-79
2021/08/16 06:33:37;;;;;;;8.80;7.90;;;;;;;17.51;73.74;99688.09;5053431;28;20234;-78
2021/08/16 06:36:05;;;;;;;8.67;7.93;;;;;;;17.38;74.07;99662.44;5055650;28;20205;-79
2021/08/16 06:38:31;;;;;;;10.03;7.83;;;;;;;17.45;74.16;99660.28;5055838;28;20200;-79
2021/08/16 06:40:59;;;;;;;8.50;7.80;;;;;;;17.46;74.06;99660.19;5049935;28;20215;-78
2021/08/16 06:43:27;;;;;;;8.50;7.70;;;;;;;17.61;74.35;99650.47;5055720;28;20232;-78
2021/08/16 06:45:54;;;;;;;12.47;8.10;;;;;;;17.73;73.64;99682.34;5048539;28;20202;-78
2021/08/16 06:48:21;;;;;;;7.80;7.10;;;;;;;17.62;72.90;99710.25;5035970;28;20217;-79
2021/08/16 06:50:47;;;;;;;10.40;7.90;;;;;;;17.54;73.19;99699.31;5035259;28;20216;-79
2021/08/16 06:53:15;;;;;;;9.17;8.37;;;;;;;17.63;73.87;99677.63;5042815;28;20225;-79
2021/08/16 06:55:42;;;;;;;8.83;7.93;;;;;;;17.69;72.85;99699.31;5055835;28;20259;-79
2021/08/16 06:58:09;;;;;;;9.80;8.70;;;;;;;17.73;72.62;99711.38;5055652;28;20208;-79
2021/08/16 07:00:35;;;;;;;10.17;8.07;;;;;;;17.57;72.68;99708.81;5055749;28;20212;-79
2021/08/16 07:03:02;;;;;;;11.07;8.27;;;;;;;17.72;73.12;99707.91;5055419;28;20247;-79
2021/08/16 07:05:29;;;;;;;8.83;7.87;;;;;;;17.82;72.84;99706.41;5055990;28;20605;-78
2021/08/16 07:07:55;;;;;;;9.93;8.40;;;;;;;17.65;71.90;99744.38;5054754;28;20212;-79
2021/08/16 07:10:23;;;;;;;9.20;8.30;;;;;;;17.73;72.51;99714.88;5056755;28;20213;-79
2021/08/16 07:12:49;;;;;;;9.40;8.43;;;;;;;17.66;71.83;99751.34;5055556;28;20212;-80
2021/08/16 07:15:16;;;;;;;9.17;8.20;;;;;;;17.76;71.92;99753.44;5055846;28;20209;-79
2021/08/16 07:17:42;;;;;;;9.33;8.17;;;;;;;17.71;72.23;99752.88;5050414;28;20201;-79
2021/08/16 07:20:10;;;;;;;10.93;8.00;;;;;;;17.81;72.30;99741.66;5034590;28;20221;-81
2021/08/16 07:22:37;;;;;;;8.63;7.73;;;;;;;17.75;72.09;99742.03;5034898;28;20272;-80
2021/08/16 07:25:03;;;;;;;9.00;8.10;;;;;;;17.77;72.07;99750.69;5035999;28;20215;-79
2021/08/16 07:27:31;;;;;;;11.37;8.67;;;;;;;17.77;72.20;99750.69;5035770;28;20208;-79
2021/08/16 07:29:58;;;;;;;9.93;8.60;;;;;;;17.73;71.56;99774.75;5035768;28;20278;-77
2021/08/16 07:32:24;;;;;;;8.50;7.63;;;;;;;17.70;71.74;99774.91;5035817;28;20247;-77
2021/08/16 07:34:51;;;;;;;8.60;7.70;;;;;;;17.61;71.78;99779.81;5046159;28;20225;-77
2021/08/16 07:37:17;;;;;;;11.80;7.40;;;;;;;17.59;72.32;99770.28;5054296;28;20613;-79
2021/08/16 07:39:44;;;;;;;9.20;8.30;;;;;;;17.57;72.50;99751.88;5053327;28;20209;-79
2021/08/16 07:42:10;;;;;;;9.03;7.93;;;;;;;17.55;72.55;99730.03;5054745;28;20232;-79
2021/08/16 07:44:38;;;;;;;9.60;7.87;;;;;;;17.69;72.27;99731.00;5055745;28;20283;-80
2021/08/16 07:47:05;;;;;;;10.90;7.40;;;;;;;17.69;72.07;99752.94;5055891;28;20701;-79
2021/08/16 07:49:32;;;;;;;9.17;7.43;;;;;;;17.67;72.26;99749.56;5055198;28;20299;-79
2021/08/16 07:52:01;;;;;;;9.00;7.07;;;;;;;17.89;72.87;99714.81;5055710;28;20266;-80
2021/08/16 07:54:27;;;;;;;7.73;7.03;;;;;;;17.98;71.84;99748.59;5054411;28;20238;-79
2021/08/16 07:56:53;;;;;;;8.13;6.40;;;;;;;18.20;71.87;99763.13;5054345;28;20206;-79
2021/08/16 07:59:20;;;;;;;7.70;6.67;;;;;;;18.29;70.38;99825.97;5054429;28;20259;-81
2021/08/16 08:01:49;;;;;;;8.57;6.83;;;;;;;18.37;70.65;99809.66;5054159;28;20618;-79
2021/08/16 08:04:15;;;;;;;7.10;6.50;;;;;;;18.50;70.32;99828.25;5048789;28;20272;-79
2021/08/16 08:06:42;;;;;;;9.30;7.30;;;;;;;18.45;69.32;99855.81;5047247;28;20211;-79
2021/08/16 08:09:08;;;;;;;8.87;7.17;;;;;;;18.38;69.95;99838.63;5043677;28;20205;-79
2021/08/16 08:11:34;;;;;;;7.67;6.87;;;;;;;18.49;70.04;99835.31;5043914;28;20250;-79
2021/08/16 08:14:01;;;;;;;7.40;6.70;;;;;;;18.51;70.03;99844.00;5044933;28;20282;-79
2021/08/16 08:16:27;;;;;;;7.73;6.80;;;;;;;18.50;70.03;99837.03;5046475;28;20200;-79
2021/08/16 08:18:55;;;;;;;7.67;6.87;;;;;;;18.58;69.86;99845.31;5054304;28;20205;-79
2021/08/16 08:21:22;;;;;;;8.87;6.87;;;;;;;18.60;69.96;99847.88;5054881;28;20204;-80
2021/08/16 08:23:48;;;;;;;7.00;6.20;;;;;;;18.55;69.53;99874.59;5053015;28;20235;-79
2021/08/16 08:26:14;;;;;;;9.07;6.90;;;;;;;18.52;69.16;99889.81;5054254;28;20591;-79
2021/08/16 08:28:41;;;;;;;7.17;6.20;;;;;;;18.66;69.90;99861.56;5055854;28;20215;-80
2021/08/16 08:31:07;;;;;;;8.57;6.50;;;;;;;18.63;69.23;99892.63;5055669;28;20213;-80
2021/08/16 08:33:34;;;;;;;7.03;6.43;;;;;;;18.78;69.78;99867.88;5055466;28;20239;-80
2021/08/16 08:36:02;;;;;;;8.90;6.67;;;;;;;18.90;68.47;99913.06;5055643;28;20259;-81
2021/08/16 08:38:28;;;;;;;9.27;6.87;;;;;;;18.83;68.63;99920.53;5056306;28;20208;-82
2021/08/16 08:40:58;;;;;;;11.30;6.87;;;;;;;18.87;68.22;99923.81;5056791;28;20615;-81
2021/08/16 08:43:26;;;;;;;8.30;7.60;;;;;;;18.72;68.21;99944.09;5057028;28;21004;-79
2021/08/16 08:45:55;;;;;;;12.43;6.90;;;;;;;18.83;69.34;99907.31;5057299;28;20204;-81
2021/08/16 08:48:22;;;;;;;8.30;6.53;;;;;;;18.91;67.51;99972.94;5057756;28;20293;-80
2021/08/16 08:50:50;;;;;;;6.70;6.07;;;;;;;18.97;67.41;99978.72;5057615;28;20234;-82
2021/08/16 08:53:18;;;;;;;8.43;7.33;;;;;;;18.72;67.44;99966.09;5056373;28;20331;-83
2021/08/16 08:55:45;;;;;;;7.50;6.83;;;;;;;18.84;68.16;99948.66;5056859;28;20262;-83
2021/08/16 08:58:13;;;;;;;8.00;7.13;;;;;;;18.82;68.12;99958.50;5056484;28;20212;-82
2021/08/16 09:00:40;;;;;;;7.77;6.30;;;;;;;18.87;67.51;99984.66;5057372;28;20220;-81
2021/08/16 09:03:06;;;;;;;7.27;6.67;;;;;;;18.96;67.46;99978.81;5055747;28;20244;-81
2021/08/16 09:05:46;;;;;;;7.60;6.90;;;;;;;19.08;67.28;99980.69;5051708;28;20254;-81
2021/08/16 09:08:22;;;;;;;8.53;7.40;;;;;;;19.15;66.67;100005.00;5047014;28;20599;-82
2021/08/16 09:10:50;;;;;;;7.03;6.33;;;;;;;19.07;65.97;100025.75;5052502;28;20270;-80
2021/08/16 09:13:24;;;;;;;11.17;6.97;;;;;;;19.02;66.53;100002.22;5057565;28;20227;-79
2021/08/16 09:15:50;;;;;;;9.80;6.90;;;;;;;19.05;67.27;99983.53;5053385;28;20211;-80
2021/08/16 09:18:29;;;;;;;6.87;6.17;;;;;;;18.96;65.72;100027.25;5054025;28;20257;-81
2021/08/16 09:20:56;;;;;;;7.13;6.43;;;;;;;19.07;66.24;100015.16;5053188;28;20208;-79
2021/08/16 09:23:23;;;;;;;7.67;6.97;;;;;;;19.30;65.63;100027.84;5052795;28;20260;-79
2021/08/16 09:25:54;;;;;;;7.77;6.23;;;;;;;19.43;64.64;100047.31;5053198;28;20267;-82
2021/08/16 09:28:27;;;;;;;6.40;5.80;;;;;;;19.67;65.28;100041.44;5053181;28;20242;-79
2021/08/16 09:30:53;;;;;;;7.97;6.37;;;;;;;19.62;64.03;100092.03;5053120;28;20742;-80
2021/08/16 09:33:22;;;;;;;10.50;5.90;;;;;;;19.68;64.47;100063.47;5052105;28;20225;-81
2021/08/16 09:35:54;;;;;;;7.70;5.93;;;;;;;19.54;64.34;100081.06;5052139;28;20556;-79
2021/08/16 09:38:38;;;;;;;6.33;5.67;;;;;;;19.58;63.97;100095.81;5052726;28;20247;-80
2021/08/16 09:41:06;;;;;;;6.40;4.70;;;;;;;19.62;63.58;100099.97;5050762;28;20216;-79
2021/08/16 09:43:33;;;;;;;9.77;5.40;;;;;;;19.65;63.75;100093.63;5054030;28;20592;-79
2021/08/16 09:46:02;;;;;;;5.80;5.27;;;;;;;19.57;63.38;100125.88;5056821;28;20258;-79
2021/08/16 09:48:28;;;;;;;7.00;4.80;;;;;;;19.36;63.29;100112.16;5057516;28;20209;-79
2021/08/16 09:50:56;;;;;;;7.07;5.23;;;;;;;19.52;63.85;100098.00;5058285;28;20563;-79
2021/08/16 09:53:24;;;;;;;10.10;5.33;;;;;;;19.61;63.41;100094.78;5056475;28;20256;-78
2021/08/16 09:55:54;;;;;;;4.90;4.40;;;;;;;19.58;63.79;100092.31;5056236;28;20210;-79
2021/08/16 09:58:21;;;;;;;6.60;4.70;;;;;;;19.70;63.29;100088.03;5055877;28;20218;-79
2021/08/16 10:00:49;;;;;;;7.10;4.53;;;;;;;19.65;63.17;100110.38;5056340;28;20213;-79
2021/08/16 10:03:16;;;;;;;6.10;5.10;;;;;;;19.57;63.24;100110.00;5053140;28;20604;-82
2021/08/16 10:05:44;;;;;;;5.23;4.20;;;;;;;19.71;62.76;100110.94;5054287;28;20212;-79
2021/08/16 10:08:12;;;;;;;5.27;4.07;;;;;;;19.64;62.34;100129.00;5055990;28;20215;-78
2021/08/16 10:10:41;;;;;;;5.53;4.33;;;;;;;19.58;63.05;100121.44;5056150;28;20244;-79
2021/08/16 10:13:11;;;;;;;6.73;4.73;;;;;;;19.64;62.81;100119.28;5055594;28;20227;-79
2021/08/16 10:15:40;;;;;;;6.03;4.63;;;;;;;19.79;62.59;100091.00;5056043;28;20201;-79
2021/08/16 10:18:11;;;;;;;6.83;4.50;;;;;;;19.84;62.64;100104.81;5055889;28;20206;-80
2021/08/16 10:20:39;;;;;;;5.27;4.30;;;;;;;19.58;62.64;100110.84;5055557;28;20673;-79
2021/08/16 10:23:16;;;;;;;7.70;4.50;;;;;;;19.76;64.29;100043.53;5054564;28;20706;-80
2021/08/16 10:25:44;;;;;;;4.30;3.93;;;;;;;19.67;62.30;100134.13;5055765;28;20192;-79
2021/08/16 10:28:23;;;;;;;5.37;4.50;;;;;;;19.72;63.32;100076.47;5055793;28;20216;-79
2021/08/16 10:30:49;;;;;;;4.67;4.23;;;;;;;19.78;62.50;100094.63;5055835;28;20223;-79
2021/08/16 10:33:17;;;;;;;5.00;4.43;;;;;;;19.61;62.58;100114.16;5052985;28;20236;-79
2021/08/16 10:35:44;;;;;;;5.43;4.77;;;;;;;19.64;62.74;100102.50;5053455;28;20738;-79
2021/08/16 10:38:13;;;;;;;5.20;4.70;;;;;;;19.69;62.72;100102.25;5055387;28;20212;-79
2021/08/16 10:40:41;;;;;;;5.60;5.10;;;;;;;19.71;62.30;100110.94;5055213;28;20258;-79
2021/08/16 10:43:09;;;;;;;7.10;5.50;;;;;;;19.53;62.78;100105.00;5055181;28;20256;-79
2021/08/16 10:45:44;;;;;;;5.67;5.10;;;;;;;19.61;62.90;100084.19;5055428;28;20614;-80
2021/08/16 10:48:19;;;;;;;4.63;4.23;;;;;;;19.63;63.02;100064.59;5055095;28;20216;-79
2021/08/16 10:50:46;;;;;;;6.70;4.67;;;;;;;19.58;63.31;100071.13;5035208;28;20225;-79
2021/08/16 10:53:12;;;;;;;6.20;4.87;;;;;;;19.45;63.63;100060.47;5041513;28;20256;-79
2021/08/16 10:55:40;;;;;;;5.27;4.40;;;;;;;19.29;64.17;100054.41;5054962;28;20213;-79
2021/08/16 10:58:08;;;;;;;5.87;4.70;;;;;;;19.00;64.97;100020.00;5057513;28;20627;-81
2021/08/16 11:00:36;;;;;;;6.47;5.87;;;;;;;19.16;65.45;100001.38;5058662;28;20273;-80
2021/08/16 11:03:03;;;;;;;7.10;5.40;;;;;;;19.32;65.48;99996.84;5054812;28;20236;-80
2021/08/16 11:05:31;;;;;;;6.20;5.60;;;;;;;19.49;64.48;100032.00;5054816;28;20622;-84
2021/08/16 11:08:02;;;;;;;5.90;5.40;;;;;;;19.60;64.83;100006.56;5035841;28;20208;-81
2021/08/16 11:10:36;;;;;;;6.33;5.77;;;;;;;19.69;65.39;100001.63;5035461;28;20297;-83
2021/08/16 11:13:09;;;;;;;7.27;5.73;;;;;;;19.62;64.49;100033.78;5034931;28;20715;-77
2021/08/16 11:15:38;;;;;;;5.90;4.77;;;;;;;19.42;65.60;99990.03;5043209;28;20210;-78
2021/08/16 11:18:15;;;;;;;6.60;5.53;;;;;;;19.39;66.03;99971.69;5044978;28;20205;-78
2021/08/16 11:20:43;;;;;;;6.70;6.03;;;;;;;19.23;67.36;99928.63;5049031;28;20205;-79
2021/08/16 11:23:10;;;;;;;6.40;5.80;;;;;;;19.19;68.14;99898.00;5043491;28;20225;-79
2021/08/16 11:25:36;;;;;;;6.67;6.10;;;;;;;19.03;69.50;99861.09;5053086;28;20200;-80
2021/08/16 11:28:07;;;;;;;5.87;5.33;;;;;;;18.80;70.32;99810.50;5055546;28;20690;-81
2021/08/16 11:30:33;;;;;;;8.07;5.40;;;;;;;18.52;70.84;99800.78;5056376;28;20295;-77
2021/08/16 11:33:01;;;;;;;6.20;5.60;;;;;;;18.53;71.92;99744.34;5056764;28;20229;-78